In Rescue
 
Open Full Screen Window  High Contrast Mode
Wind Gusting 00 knots
09
March 19, 2019 7:35 PM EDT
Weather Information
Wind Direction
  240 °
Wind Speed
  09 kt (10 mph)
Wind Gust
  00 kt (0 mph)
Altimeter
30.28 in
Visibility
10 SM
Temperature
06° C
43° F
Dewpoint
-07° C
19° F
Humidity
39%
Sky Condition
Clear
VFR

METAR KAMN 192335Z AUTO 24009KT 10SM CLR 06/M07 A3028 RMK AO2 T00551069

FAA Disclaimer: The data displayed is for advisory purposes only and is not to be used for flight planning or operations.